メインページ
METAR-TAF:

METAR-TAF

空港 :

ダブリン, アイルランド

ダブリン空港

緯度: 53-26N, 経度: 006-15W, 海抜: 68m

現時点の気象観測

当レポートは36分前の15:00(UTC)に作成
西/北西の風 14kt
気温 17°C
湿度 52%
気圧 1012 hPa
視程10km以上
高度2200ftの雲はほとんどない
高度5000ftの千切れ雲あり

METAR: EIDW 251500Z 29014KT 9999 FEW022 BKN050 17/07 Q1012 NOSIG

時間: 16:36 (15:36 UTC)

予報

当レポートは4時間36分前の11:00(UTC)に作成
予報は25日の 12時(UTC)から 26日の 12時(UTC)まで有効
西/北西の風 10kt
視程: 8000m
高度1500ftの雲はほとんどない
高度2000ftの千切れ雲あり
25日の 23時(UTC)から 26日の 02時(UTC)まで徐々に
変向風 3kt
26日の 10時(UTC)から 26日の 12時(UTC)まで徐々に
東/南東の風 7kt

TAF: EIDW 251100Z 2512/2612 29010KT 8000 FEW015 BKN020 BECMG 2523/2602 VRB03KT BECMG 2610/2612 12007KT

4,000以上の空港の気象観測と天気予報(METAR報とTAF報)

利用可能な観測所は地図上に黄色い丸と赤い丸で示す。

丸の上にカーソルを重ねると観測所名を参照できる。

次にクリックすると気象観測と天気予報を参照できる。

マップの切り替え:黒色「×」印の緑ボタンをクリックして拡大、「-」印の緑ボタンをクリックして縮小、緑色の三角印をクリックして隣りの地図に切り替え


METAR-TAF: